Terminal Aerodrome Forecast
Issued by NWS Newport/Morehead City, NC

Home | Current Version | Previous Version | Graphics & Text | Print | Product List | Glossary On
Versions: 1 2 3 4 5 6 7 8 9 10 11 12 13 14
000
FTUS42 KMHX 261143
TAFEWN
TAF
KEWN 261143Z 2612/2712 05010KT 4SM BR VCSH OVC003
     FM261500 02006KT P6SM OVC007
     FM261800 36009KT P6SM OVC015
     FM270000 VRB03KT P6SM BKN050=

USA.gov is the U.S. government's official web portal to all federal, state and local government web resources and services.